Richville, Michigan
Current Conditions -  °F | °C
As of 7:15 PM on Wednesday 26 Nov 2014 (Local Time) from KHYX Reporting Station
Overcast Overcast  
Wind Chill: 25°   Ceiling: 4500
Heat Index: 30°   Visibility: 10mi
Dew Point: 27°   Wind: 5mph
Humidity: 86%   Direction: 330°NNW
Pressure: 30.12"   Gusts: NA
Location:  43.41°N, 83.68°W
Report Text: KHYX 270015Z AUTO 33004KT 10SM OVC045 M01/M03 A3012 RMK AO2
Loading
Personal Weather Stations






























Interactive Weather Map New forecast layout! Learn more

10-Day Weather Forecast

Advertisements
Track Severe Weather on mobile